Time;durP1;ratioP1;P1;durP2;ratioP2;P2;SDS_P1;SDS_P2;PMS_P1;PMS_P2;Temp;Humidity;BMP_temperature;BMP_pressure;BME280_temperature;BME280_humidity;BME280_pressure;Samples;Min_cycle;Max_cycle;Signal;HPM_P1;HPM_P2
2021/03/31 00:00:40;;;;;;;29.70;25.98;;;;;;;8.53;82.81;101526.33;104768;1101;82499;-63
2021/03/31 00:02:52;;;;;;;29.77;25.98;;;;;;;8.49;82.80;101527.60;104770;1101;72338;-63
2021/03/31 00:04:57;;;;;;;28.50;25.30;;;;;;;8.49;82.75;101537.55;104759;1101;84735;-58
2021/03/31 00:07:05;;;;;;;29.20;25.45;;;;;;;8.44;82.82;101532.59;104758;1101;78386;-58
2021/03/31 00:09:13;;;;;;;29.65;24.75;;;;;;;8.39;82.91;101526.80;104780;1101;64150;-58
2021/03/31 00:11:22;;;;;;;29.38;24.75;;;;;;;8.31;83.00;101526.70;104753;1101;81655;-63
2021/03/31 00:13:31;;;;;;;27.92;24.90;;;;;;;8.27;83.16;101525.28;104795;1101;71438;-62
2021/03/31 00:15:37;;;;;;;27.08;23.50;;;;;;;8.23;83.10;101518.47;104783;1101;85374;-62
2021/03/31 00:17:42;;;;;;;28.65;25.38;;;;;;;8.23;83.13;101523.86;104773;1101;76931;-62
2021/03/31 00:19:51;;;;;;;28.83;25.60;;;;;;;8.19;83.24;101520.59;104771;1101;64086;-57
2021/03/31 00:21:56;;;;;;;30.30;26.17;;;;;;;8.23;83.30;101523.86;104768;1101;79844;-58
2021/03/31 00:24:02;;;;;;;30.75;25.70;;;;;;;8.23;83.31;101518.47;104773;1101;70786;-59
2021/03/31 00:26:08;;;;;;;30.40;26.05;;;;;;;8.24;83.31;101514.80;104794;1101;83806;-63
2021/03/31 00:28:14;;;;;;;31.13;25.88;;;;;;;8.27;83.65;101517.20;104741;1101;78898;-65
2021/03/31 00:30:22;;;;;;;30.75;25.75;;;;;;;8.28;83.43;101513.52;104746;1101;64138;-59
2021/03/31 00:32:27;;;;;;;29.48;25.75;;;;;;;8.28;83.14;101517.07;104518;1101;80830;-59
2021/03/31 00:34:33;;;;;;;30.33;26.55;;;;;;;8.26;83.47;101505.58;104736;1101;72163;-63
2021/03/31 00:36:38;;;;;;;34.25;28.88;;;;;;;8.23;83.42;101507.70;104753;1101;83494;-63
2021/03/31 00:38:43;;;;;;;31.33;26.17;;;;;;;8.21;83.25;101504.32;104779;1101;79701;-63
2021/03/31 00:40:55;;;;;;;32.47;26.92;;;;;;;8.23;83.45;101505.02;104768;1101;64253;-58
2021/03/31 00:43:00;;;;;;;31.73;25.85;;;;;;;8.25;83.73;101501.17;104773;1101;80639;-58
2021/03/31 00:45:08;;;;;;;32.90;27.25;;;;;;;8.25;83.77;101505.70;104749;1101;71986;-58
2021/03/31 00:47:14;;;;;;;33.17;26.27;;;;;;;8.25;83.73;101503.02;104763;1101;85006;-58
2021/03/31 00:49:20;;;;;;;28.80;25.48;;;;;;;8.24;83.50;101504.85;104770;1101;77718;-59
2021/03/31 00:51:25;;;;;;;29.25;25.50;;;;;;;8.26;83.35;101507.41;104779;1101;64146;-58
2021/03/31 00:53:36;;;;;;;29.20;25.88;;;;;;;8.24;83.73;101498.65;104771;1101;80878;-58
2021/03/31 00:55:42;;;;;;;34.85;27.90;;;;;;;8.24;83.75;101502.16;104782;1101;71674;-58
2021/03/31 00:57:51;;;;;;;31.50;26.25;;;;;;;8.24;83.66;101488.70;104780;1101;83764;-58
2021/03/31 00:59:57;;;;;;;31.80;26.98;;;;;;;8.24;83.77;101495.95;104782;1101;78864;-58
2021/03/31 01:02:02;;;;;;;30.67;26.75;;;;;;;8.22;83.62;101487.16;104778;1101;64150;-58
2021/03/31 01:04:13;;;;;;;29.60;25.80;;;;;;;8.25;83.67;101505.70;104791;1101;79501;-58
2021/03/31 01:06:19;;;;;;;30.90;27.20;;;;;;;8.22;83.70;101500.61;104777;1101;72158;-58
2021/03/31 01:08:24;;;;;;;31.25;26.58;;;;;;;8.22;83.65;101497.92;104805;1101;84962;-58
2021/03/31 01:10:34;;;;;;;31.42;25.23;;;;;;;8.21;83.90;101493.55;104750;1101;78388;-58
2021/03/31 01:13:01;;;;;;;32.03;27.07;;;;;;;8.21;83.99;101502.45;104788;1101;64150;-58
2021/03/31 01:15:13;;;;;;;33.10;26.80;;;;;;;8.18;83.63;101499.23;104791;1101;80509;-58
2021/03/31 01:17:29;;;;;;;34.17;27.85;;;;;;;8.13;83.65;101498.83;104823;1101;72127;-57
2021/03/31 01:20:47;;;;;;;31.15;27.15;;;;;;;8.12;83.73;101497.97;104790;1101;84689;-61
2021/03/31 01:23:38;;;;;;;33.58;27.33;;;;;;;8.09;83.68;101500.95;104289;1105;76765;-63
2021/03/31 01:25:49;;;;;;;33.90;28.38;;;;;;;8.07;83.69;101504.79;104273;1105;64233;-61
2021/03/31 01:28:51;;;;;;;33.65;26.80;;;;;;;8.05;83.58;101498.68;104658;1101;81652;-61
2021/03/31 01:31:07;;;;;;;35.23;27.73;;;;;;;8.01;83.67;101497.30;104392;1104;73211;-64
2021/03/31 01:34:00;;;;;;;35.30;28.85;;;;;;;7.97;84.01;101504.80;104666;1101;84331;-64
2021/03/31 01:36:07;;;;;;;30.73;26.92;;;;;;;7.95;83.58;101492.48;104759;1101;78770;-64
2021/03/31 01:38:16;;;;;;;34.33;27.83;;;;;;;7.97;84.06;101491.34;104783;1101;64163;-64
2021/03/31 01:40:25;;;;;;;32.97;28.00;;;;;;;7.95;84.01;101498.72;104790;1101;81464;-58
2021/03/31 01:42:34;;;;;;;31.35;26.95;;;;;;;7.92;83.77;101499.02;104789;1101;71836;-57
2021/03/31 01:44:43;;;;;;;34.30;27.80;;;;;;;7.90;83.83;101492.08;104823;1101;83627;-64
2021/03/31 01:46:54;;;;;;;31.63;26.77;;;;;;;7.88;84.23;101491.39;104783;1101;79708;-64
2021/03/31 01:49:03;;;;;;;31.40;28.00;;;;;;;7.86;83.74;101482.59;104779;1101;64317;-64
2021/03/31 01:51:13;;;;;;;34.15;28.98;;;;;;;7.84;84.02;101480.06;104740;1101;81206;-64
2021/03/31 01:53:19;;;;;;;35.83;27.98;;;;;;;7.82;83.84;101479.36;104820;1101;71606;-63
2021/03/31 01:55:26;;;;;;;32.70;28.05;;;;;;;7.78;83.95;101479.78;104785;1101;83959;-64
2021/03/31 01:57:32;;;;;;;33.65;28.42;;;;;;;7.79;84.10;101482.34;104804;1101;78146;-63
2021/03/31 01:59:39;;;;;;;31.77;27.13;;;;;;;7.85;84.38;101478.22;104740;1101;64150;-60
2021/03/31 02:01:45;;;;;;;33.53;27.15;;;;;;;7.84;84.35;101479.20;104791;1101;81640;-59
2021/03/31 02:03:55;;;;;;;32.30;28.38;;;;;;;7.85;84.34;101483.60;104772;1101;71524;-57
2021/03/31 02:06:02;;;;;;;32.70;27.33;;;;;;;7.81;84.39;101479.49;104802;1101;83334;-62
2021/03/31 02:08:09;;;;;;;30.85;26.50;;;;;;;7.78;84.27;101485.16;104739;1101;78162;-62
2021/03/31 02:10:17;;;;;;;32.80;28.48;;;;;;;7.77;84.08;101484.34;104768;1101;64201;-57
2021/03/31 02:12:27;;;;;;;33.70;27.50;;;;;;;7.75;84.28;101482.79;104768;1101;82638;-57
2021/03/31 02:14:37;;;;;;;32.92;27.35;;;;;;;7.73;83.94;101481.08;104793;1101;73086;-61
2021/03/31 02:16:44;;;;;;;33.80;26.65;;;;;;;7.73;84.14;101482.91;104760;1101;85323;-63
2021/03/31 02:18:51;;;;;;;34.00;28.08;;;;;;;7.70;84.08;101484.05;104735;1101;78416;-63
2021/03/31 02:20:59;;;;;;;34.15;27.95;;;;;;;7.70;84.08;101484.05;104782;1101;64287;-63
2021/03/31 02:23:05;;;;;;;32.63;27.27;;;;;;;7.70;84.53;101477.82;104735;1101;80994;-63
2021/03/31 02:25:14;;;;;;;32.03;26.15;;;;;;;7.63;84.06;101484.78;104787;1101;72320;-64
2021/03/31 02:27:20;;;;;;;36.65;26.30;;;;;;;7.63;84.04;101482.95;104809;1101;83656;-64
2021/03/31 02:29:26;;;;;;;31.63;26.23;;;;;;;7.60;84.20;101475.16;104744;1101;77375;-63
2021/03/31 02:31:36;;;;;;;35.17;28.20;;;;;;;7.60;84.20;101480.55;104749;1101;64150;-63
2021/03/31 02:33:43;;;;;;;33.97;28.02;;;;;;;7.59;84.48;101481.52;104805;1101;80630;-63
2021/03/31 02:35:49;;;;;;;33.20;27.05;;;;;;;7.57;84.34;101483.52;104747;1101;73331;-64
2021/03/31 02:37:58;;;;;;;32.67;27.17;;;;;;;7.56;84.21;101475.58;104788;1101;85884;-64
2021/03/31 02:40:07;;;;;;;33.77;28.97;;;;;;;7.53;84.48;101476.71;104805;1101;77108;-63
2021/03/31 02:42:17;;;;;;;35.28;28.30;;;;;;;7.52;84.36;101471.49;104826;1101;64332;-64
2021/03/31 02:44:23;;;;;;;34.95;28.30;;;;;;;7.53;84.59;101475.86;104798;1101;81637;-58
2021/03/31 02:46:32;;;;;;;33.67;28.45;;;;;;;7.50;84.56;101468.93;104780;1101;72152;-58
2021/03/31 02:48:39;;;;;;;33.22;27.48;;;;;;;7.49;84.41;101478.01;104773;1101;85805;-59
2021/03/31 02:50:47;;;;;;;34.75;27.45;;;;;;;7.49;84.65;101464.56;104728;1101;77470;-58
2021/03/31 02:52:54;;;;;;;31.13;27.67;;;;;;;7.50;84.62;101471.62;104800;1101;64389;-58
2021/03/31 02:55:02;;;;;;;33.67;27.77;;;;;;;7.45;84.33;101473.89;104724;1101;81914;-63
2021/03/31 02:57:12;;;;;;;34.20;27.83;;;;;;;7.44;84.38;101477.59;104791;1101;71624;-62
2021/03/31 02:59:18;;;;;;;34.05;28.45;;;;;;;7.43;84.30;101481.26;104800;1101;83696;-57
2021/03/31 03:01:24;;;;;;;33.73;27.10;;;;;;;7.41;84.44;101472.50;104763;1101;77407;-57
2021/03/31 03:03:31;;;;;;;33.22;28.02;;;;;;;7.37;84.50;101479.14;104743;1101;64154;-57
2021/03/31 03:05:37;;;;;;;34.92;28.35;;;;;;;7.34;84.42;101473.19;104741;1101;81653;-62
2021/03/31 03:07:43;;;;;;;36.70;28.92;;;;;;;7.30;84.32;101469.10;104744;1101;71819;-62
2021/03/31 03:09:49;;;;;;;35.40;29.02;;;;;;;7.30;84.46;101474.48;104739;1101;84632;-59
2021/03/31 03:11:55;;;;;;;32.33;27.70;;;;;;;7.30;84.54;101469.10;104736;1101;77921;-59
2021/03/31 03:14:02;;;;;;;34.30;28.42;;;;;;;7.31;84.56;101460.03;104755;1101;64153;-60
2021/03/31 03:16:09;;;;;;;34.50;29.08;;;;;;;7.29;84.62;101462.88;104740;1101;82498;-59
2021/03/31 03:18:15;;;;;;;33.88;26.85;;;;;;;7.28;84.47;101458.48;104767;1101;71731;-59
2021/03/31 03:20:21;;;;;;;33.08;27.60;;;;;;;7.27;84.48;101462.17;104787;1101;84702;-63
2021/03/31 03:22:28;;;;;;;33.25;27.67;;;;;;;7.24;84.85;101457.08;104768;1101;78052;-64
2021/03/31 03:24:34;;;;;;;33.90;27.65;;;;;;;7.22;84.72;101464.45;104804;1101;64327;-59
2021/03/31 03:26:44;;;;;;;36.92;27.95;;;;;;;7.24;84.79;101464.28;104800;1101;81375;-59
2021/03/31 03:28:51;;;;;;;36.47;28.80;;;;;;;7.25;84.74;101455.25;104754;1101;70769;-59
2021/03/31 03:30:57;;;;;;;36.03;28.10;;;;;;;7.25;84.76;101461.45;104762;1101;85579;-64
2021/03/31 03:33:03;;;;;;;35.70;29.30;;;;;;;7.24;84.97;101449.02;104753;1101;77698;-63
2021/03/31 03:35:12;;;;;;;37.97;29.63;;;;;;;7.26;85.13;101452.41;104800;1101;64151;-63
2021/03/31 03:37:20;;;;;;;38.65;30.02;;;;;;;7.26;84.93;101460.47;104789;1101;80388;-63
2021/03/31 03:39:26;;;;;;;37.30;28.73;;;;;;;7.24;85.03;101451.70;104773;1101;70903;-59
2021/03/31 03:41:32;;;;;;;34.97;27.50;;;;;;;7.25;85.03;101456.07;104804;1101;83544;-59
2021/03/31 03:43:40;;;;;;;35.42;28.00;;;;;;;7.21;84.98;101460.05;104782;1101;78516;-58
2021/03/31 03:45:48;;;;;;;38.92;28.48;;;;;;;7.18;84.90;101456.79;104795;1101;64176;-59
2021/03/31 03:47:54;;;;;;;36.40;28.98;;;;;;;7.13;84.65;101449.16;104919;1086;81903;-63
2021/03/31 03:50:01;;;;;;;40.22;30.33;;;;;;;7.15;84.77;101447.17;104572;1101;72066;-63
2021/03/31 03:52:09;;;;;;;39.03;29.35;;;;;;;7.18;85.07;101446.04;104520;1103;85032;-62
2021/03/31 03:54:17;;;;;;;36.40;28.55;;;;;;;7.18;84.67;101451.41;104482;1104;79386;-65
2021/03/31 03:56:24;;;;;;;36.03;27.05;;;;;;;7.15;84.85;101455.23;104527;1104;64292;-64
2021/03/31 03:58:33;;;;;;;39.45;30.77;;;;;;;7.14;85.05;101457.06;104515;1104;81732;-60
2021/03/31 04:00:41;;;;;;;40.70;30.30;;;;;;;7.12;84.83;101456.37;104501;1104;71057;-59
2021/03/31 04:02:51;;;;;;;37.22;28.55;;;;;;;7.14;85.04;101448.19;104471;1104;85537;-63
2021/03/31 04:04:57;;;;;;;36.17;28.85;;;;;;;7.12;84.77;101455.52;104443;1104;79225;-63
2021/03/31 04:07:02;;;;;;;36.85;28.80;;;;;;;7.06;84.74;101448.02;104545;1104;64153;-63
2021/03/31 04:09:09;;;;;;;43.33;30.87;;;;;;;7.03;85.00;101445.64;104473;1104;83161;-63
2021/03/31 04:11:14;;;;;;;38.80;28.15;;;;;;;6.98;84.56;101447.87;104483;1104;71738;-63
2021/03/31 04:13:21;;;;;;;41.03;29.25;;;;;;;6.94;85.04;101443.78;104475;1104;83382;-63
2021/03/31 04:15:27;;;;;;;38.10;28.08;;;;;;;6.93;84.56;101444.76;104460;1104;78107;-63
2021/03/31 04:17:33;;;;;;;38.97;29.05;;;;;;;6.90;84.73;101451.27;104492;1104;64192;-63
2021/03/31 04:19:44;;;;;;;40.75;29.45;;;;;;;6.88;84.57;101452.39;104429;1104;81986;-63
2021/03/31 04:21:50;;;;;;;37.03;28.33;;;;;;;6.88;84.97;101447.88;104465;1104;72480;-59
2021/03/31 04:23:55;;;;;;;44.22;31.92;;;;;;;6.93;85.26;101453.67;104446;1104;85433;-59
2021/03/31 04:26:04;;;;;;;39.83;30.00;;;;;;;6.98;84.99;101453.24;104427;1104;78465;-59
2021/03/31 04:28:12;;;;;;;41.63;28.63;;;;;;;7.02;84.77;101449.30;104514;1104;64435;-64
2021/03/31 04:30:22;;;;;;;42.33;29.75;;;;;;;7.03;84.81;101453.70;104488;1104;84043;-64
2021/03/31 04:32:28;;;;;;;38.95;28.83;;;;;;;7.02;84.58;101451.98;104491;1104;71342;-60
2021/03/31 04:34:33;;;;;;;37.90;27.93;;;;;;;6.99;84.44;101447.75;103625;1104;992316;-60
2021/03/31 04:36:40;;;;;;;37.90;28.60;;;;;;;7.01;84.89;101447.59;104473;1104;78262;-60
2021/03/31 04:38:51;;;;;;;40.03;30.17;;;;;;;7.05;84.76;101446.34;104495;1104;64048;-59
2021/03/31 04:41:00;;;;;;;38.70;30.60;;;;;;;7.09;84.72;101455.80;104517;1104;82265;-59
2021/03/31 04:43:06;;;;;;;39.35;29.05;;;;;;;7.10;84.80;101452.13;104485;1104;70674;-63
2021/03/31 04:45:15;;;;;;;41.83;29.95;;;;;;;7.15;84.71;101449.86;104495;1104;84664;-63
2021/03/31 04:47:21;;;;;;;38.08;30.08;;;;;;;7.26;84.74;101459.61;104525;1104;77294;-64
2021/03/31 04:49:26;;;;;;;39.33;30.80;;;;;;;7.39;84.69;101460.20;104485;1104;64156;-63
2021/03/31 04:51:32;;;;;;;37.08;28.88;;;;;;;7.48;84.74;101451.25;104427;1104;83043;-62
2021/03/31 04:53:37;;;;;;;39.47;31.48;;;;;;;7.62;85.00;101451.66;104508;1104;70534;-59
2021/03/31 04:55:43;;;;;;;38.88;31.13;;;;;;;7.74;85.05;101457.73;104449;1104;85895;-59
2021/03/31 04:57:48;;;;;;;42.87;30.53;;;;;;;7.89;84.93;101458.09;104455;1104;78101;-59
2021/03/31 04:59:53;;;;;;;39.25;31.70;;;;;;;8.15;85.12;101451.93;104471;1104;64150;-59
2021/03/31 05:02:03;;;;;;;40.63;30.38;;;;;;;8.47;85.12;101450.66;104473;1104;81012;-59
2021/03/31 05:04:10;;;;;;;38.80;31.60;;;;;;;8.82;84.87;101450.72;104508;1104;73329;-59
2021/03/31 05:06:15;;;;;;;44.78;32.80;;;;;;;9.01;84.89;101455.15;104501;1103;85832;-58
2021/03/31 05:08:20;;;;;;;40.22;31.52;;;;;;;9.06;84.56;101460.92;104468;1104;79302;-59
2021/03/31 05:10:26;;;;;;;40.90;30.45;;;;;;;9.37;84.69;101451.41;104524;1104;64354;-58
2021/03/31 05:12:35;;;;;;;39.58;31.10;;;;;;;10.01;85.09;101448.34;104458;1104;81812;-59
2021/03/31 05:14:43;;;;;;;38.25;30.35;;;;;;;10.92;84.98;101452.95;104487;1104;71378;-59
2021/03/31 05:16:49;;;;;;;39.08;31.08;;;;;;;11.87;85.06;101448.78;104437;1104;83156;-60
2021/03/31 05:18:57;;;;;;;36.80;31.13;;;;;;;12.73;84.30;101438.80;104480;1104;78467;-60
2021/03/31 05:21:06;;;;;;;35.40;28.80;;;;;;;13.25;83.40;101437.13;104455;1104;64649;-59
2021/03/31 05:23:12;;;;;;;35.92;28.88;;;;;;;13.78;82.66;101440.73;104448;1104;83097;-64
2021/03/31 05:25:20;;;;;;;32.65;28.55;;;;;;;14.28;81.96;101445.47;104490;1104;71586;-64
2021/03/31 05:27:31;;;;;;;36.15;28.20;;;;;;;14.72;80.54;101449.02;104488;1104;84165;-64
2021/03/31 05:29:37;;;;;;;33.45;28.85;;;;;;;14.99;80.08;101445.57;104453;1104;77350;-64
2021/03/31 05:31:42;;;;;;;31.45;27.48;;;;;;;15.31;79.36;101450.51;104508;1104;64323;-63
2021/03/31 05:33:48;;;;;;;32.47;27.92;;;;;;;15.74;78.50;101456.78;104496;1104;83218;-64
2021/03/31 05:35:56;;;;;;;30.85;26.88;;;;;;;16.03;76.74;101453.03;104526;1104;71554;-64
2021/03/31 05:38:02;;;;;;;30.83;27.00;;;;;;;16.32;76.13;101449.21;104546;1103;83908;-59
2021/03/31 05:40:10;;;;;;;29.65;26.15;;;;;;;16.30;75.11;101448.58;104434;1104;77802;-59
2021/03/31 05:42:17;;;;;;;30.88;27.38;;;;;;;16.09;74.53;101454.12;104485;1104;64151;-59
2021/03/31 05:44:23;;;;;;;36.10;28.02;;;;;;;15.70;74.17;101460.11;104507;1104;82724;-59
2021/03/31 05:46:39;;;;;;;34.00;27.52;;;;;;;15.41;74.15;101454.80;104516;1104;71861;-59
2021/03/31 05:48:48;;;;;;;33.50;27.63;;;;;;;15.17;74.35;101465.02;104527;1104;85025;-64
2021/03/31 05:50:53;;;;;;;32.75;28.33;;;;;;;15.15;73.99;101468.97;104459;1104;78435;-65
2021/03/31 05:52:59;;;;;;;33.95;29.15;;;;;;;15.27;74.06;101465.53;104518;1104;64109;-59
2021/03/31 05:55:06;;;;;;;35.42;27.55;;;;;;;15.96;73.85;101464.94;104479;1104;81804;-60
2021/03/31 05:57:18;;;;;;;31.70;27.20;;;;;;;16.72;73.13;101453.88;104552;1104;71210;-65
2021/03/31 05:59:30;;;;;;;32.22;28.88;;;;;;;17.18;72.28;101450.43;104482;1104;85439;-65
2021/03/31 06:01:38;;;;;;;32.85;29.45;;;;;;;17.51;71.60;101454.05;104471;1104;76851;-64
2021/03/31 06:03:44;;;;;;;30.95;27.75;;;;;;;17.64;70.92;101451.36;104530;1104;64150;-64
2021/03/31 06:05:57;;;;;;;31.38;27.88;;;;;;;17.42;70.48;101447.10;104499;1104;81938;-65
2021/03/31 06:08:06;;;;;;;34.00;29.15;;;;;;;17.57;69.70;101450.53;104505;1104;71591;-66
2021/03/31 06:10:18;;;;;;;35.55;31.00;;;;;;;17.81;69.43;101449.05;104523;1103;83257;-66
2021/03/31 06:12:31;;;;;;;32.78;29.45;;;;;;;17.84;68.86;101440.42;104485;1103;77036;-59
2021/03/31 06:14:40;;;;;;;34.28;29.75;;;;;;;17.33;68.84;101451.92;104475;1104;64153;-58
2021/03/31 06:16:47;;;;;;;32.90;29.13;;;;;;;17.08;69.02;101457.12;104497;1104;82336;-65
2021/03/31 06:18:56;;;;;;;33.50;29.05;;;;;;;16.88;68.78;101455.39;104473;1104;71683;-64
2021/03/31 06:21:06;;;;;;;32.70;28.45;;;;;;;16.57;69.02;101455.89;104491;1104;83384;-66
2021/03/31 06:23:33;;;;;;;32.25;28.80;;;;;;;16.59;69.26;101448.33;104501;1104;78750;-67
2021/03/31 06:25:45;;;;;;;31.83;28.45;;;;;;;16.96;68.84;101450.59;104494;1104;64217;-64
2021/03/31 06:27:57;;;;;;;32.45;29.10;;;;;;;17.31;68.69;101451.30;104482;1104;81828;-61
2021/03/31 06:30:04;;;;;;;32.40;29.10;;;;;;;17.50;68.37;101446.90;104532;1104;72163;-63
2021/03/31 06:32:19;;;;;;;31.10;27.77;;;;;;;17.73;67.93;101443.80;104523;1104;85341;-59
2021/03/31 06:34:32;;;;;;;32.30;28.95;;;;;;;18.06;67.69;101445.45;104484;1104;78228;-58
2021/03/31 06:36:43;;;;;;;31.65;28.40;;;;;;;18.09;66.88;101444.19;104484;1104;64112;-59
2021/03/31 06:38:50;;;;;;;31.75;28.40;;;;;;;18.01;66.97;101439.79;104533;1104;81554;-57
2021/03/31 06:40:59;;;;;;;32.25;29.05;;;;;;;18.01;66.68;101437.05;104523;1104;70963;-57
2021/03/31 06:43:18;;;;;;;31.20;28.00;;;;;;;17.95;66.01;101440.63;104513;1104;83686;-58
2021/03/31 06:45:38;;;;;;;30.50;27.20;;;;;;;17.98;66.35;101439.36;104502;1104;79043;-58
2021/03/31 06:47:46;;;;;;;30.50;27.50;;;;;;;18.20;65.79;101436.17;104467;1103;64124;-59
2021/03/31 06:49:53;;;;;;;33.70;29.70;;;;;;;17.94;66.00;101436.20;104511;1104;81345;-60
2021/03/31 06:52:07;;;;;;;33.38;28.55;;;;;;;18.16;65.58;101437.64;104518;1104;70808;-58
2021/03/31 06:54:18;;;;;;;32.50;28.95;;;;;;;17.93;66.26;101428.23;104550;1104;85978;-58
2021/03/31 06:56:31;;;;;;;31.87;27.43;;;;;;;18.32;66.11;101430.89;104481;1104;78243;-59
2021/03/31 06:58:37;;;;;;;30.70;27.58;;;;;;;18.62;65.14;101431.23;104530;1104;64172;-62
2021/03/31 07:00:42;;;;;;;29.70;26.75;;;;;;;18.28;65.12;101426.89;104486;1104;80658;-62
2021/03/31 07:02:49;;;;;;;32.75;29.33;;;;;;;18.24;65.17;101431.09;104499;1104;71424;-58
2021/03/31 07:05:01;;;;;;;30.13;27.02;;;;;;;18.12;65.26;101428.20;104472;1104;84644;-61
2021/03/31 07:07:14;;;;;;;32.55;29.02;;;;;;;18.09;64.46;101428.63;104464;1104;77928;-60
2021/03/31 07:09:31;;;;;;;32.63;28.70;;;;;;;17.92;65.17;101424.65;104459;1104;64355;-63
2021/03/31 07:11:45;;;;;;;31.42;28.35;;;;;;;18.42;64.92;101412.13;104442;1104;82248;-59
2021/03/31 07:13:54;;;;;;;31.98;28.10;;;;;;;18.67;64.66;101415.84;104430;1103;72042;-58
2021/03/31 07:16:03;;;;;;;29.97;26.77;;;;;;;18.73;64.35;101417.69;104523;1103;84123;-60
2021/03/31 07:18:13;;;;;;;32.60;29.20;;;;;;;18.71;64.25;101417.07;103609;1102;957047;-62
2021/03/31 07:20:22;;;;;;;30.60;27.33;;;;;;;18.72;64.21;101415.18;104518;1104;64099;-62
2021/03/31 07:22:28;;;;;;;31.27;28.10;;;;;;;18.72;64.40;101418.77;104508;1104;81958;-59
2021/03/31 07:24:34;;;;;;;32.13;28.60;;;;;;;18.98;63.92;101412.28;104505;1104;71953;-59
2021/03/31 07:26:41;;;;;;;31.50;27.45;;;;;;;19.09;63.72;101417.06;104481;1104;84201;-63
2021/03/31 07:28:52;;;;;;;35.08;27.75;;;;;;;19.79;63.46;101412.34;104452;1104;78432;-63
2021/03/31 07:30:58;;;;;;;34.80;28.38;;;;;;;20.40;62.47;101412.38;104503;1104;64390;-63
2021/03/31 07:33:11;;;;;;;30.60;26.40;;;;;;;20.75;61.72;101412.56;104507;1103;82061;-59
2021/03/31 07:35:23;;;;;;;31.63;27.80;;;;;;;21.29;61.48;101415.19;104534;1104;72552;-59
2021/03/31 07:37:29;;;;;;;30.63;27.42;;;;;;;21.91;60.98;101400.02;104509;1104;84926;-63
2021/03/31 07:39:40;;;;;;;28.58;25.65;;;;;;;22.27;60.40;101409.92;104475;1104;77839;-64
2021/03/31 07:41:51;;;;;;;27.85;24.90;;;;;;;22.94;59.61;101399.23;104496;1104;64250;-63
2021/03/31 07:43:59;;;;;;;28.17;25.15;;;;;;;23.48;57.93;101407.70;104537;1104;82356;-63
2021/03/31 07:46:09;;;;;;;27.48;24.58;;;;;;;23.19;57.50;101408.78;104441;1104;71994;-65
2021/03/31 07:48:16;;;;;;;27.25;24.42;;;;;;;23.68;57.01;101407.18;104500;1104;84569;-64
2021/03/31 07:50:22;;;;;;;27.60;24.80;;;;;;;23.99;56.71;101402.98;104447;1104;79116;-63
2021/03/31 07:52:52;;;;;;;25.40;22.80;;;;;;;24.00;56.17;101408.27;104453;1103;64253;-63
2021/03/31 07:55:00;;;;;;;27.20;24.50;;;;;;;24.34;55.96;101399.91;104471;1103;81309;-64
2021/03/31 07:57:31;;;;;;;27.25;24.63;;;;;;;24.91;54.98;101398.47;104509;1104;71990;-64
2021/03/31 07:59:41;;;;;;;25.92;23.20;;;;;;;25.00;54.01;101405.17;104465;1104;85174;-64
2021/03/31 08:01:51;;;;;;;26.80;24.00;;;;;;;25.13;53.56;101399.23;104429;1104;78378;-60
2021/03/31 08:03:56;;;;;;;28.67;24.70;;;;;;;24.70;52.93;101399.27;104488;1104;64246;-60
2021/03/31 08:06:08;;;;;;;26.48;23.88;;;;;;;24.71;52.86;101405.64;104495;1104;83057;-60
2021/03/31 08:08:17;;;;;;;27.15;24.05;;;;;;;24.51;52.45;101406.22;104514;1104;71383;-64
2021/03/31 08:10:36;;;;;;;21.45;19.25;;;;;;;24.17;52.57;101410.19;104516;1104;86670;-64
2021/03/31 08:12:42;;;;;;;22.42;20.13;;;;;;;23.91;52.95;101407.02;104480;1104;77512;-58
2021/03/31 08:14:48;;;;;;;26.48;22.42;;;;;;;24.03;52.92;101404.16;104510;1104;64147;-60
2021/03/31 08:17:00;;;;;;;25.18;21.96;;;;;;;24.27;52.88;101407.55;104500;1104;82289;-64
2021/03/31 08:19:08;;;;;;;23.98;21.58;;;;;;;24.46;51.99;101404.23;104473;1104;70773;-65
2021/03/31 08:21:25;;;;;;;25.40;22.80;;;;;;;24.83;51.56;101409.15;104493;1104;83746;-65
2021/03/31 08:23:48;;;;;;;27.05;24.10;;;;;;;25.01;51.12;101406.02;104476;1104;77981;-64
2021/03/31 08:25:54;;;;;;;26.63;24.02;;;;;;;25.01;50.96;101401.33;104541;1104;64162;-62
2021/03/31 08:28:06;;;;;;;26.88;24.17;;;;;;;25.54;50.08;101394.96;104464;1104;80495;-64
2021/03/31 08:30:23;;;;;;;24.48;22.00;;;;;;;25.48;50.08;101397.94;104478;1104;70492;-64
2021/03/31 08:32:29;;;;;;;25.27;22.70;;;;;;;25.43;49.54;101398.70;104479;1104;85228;-59
2021/03/31 08:34:39;;;;;;;25.47;22.03;;;;;;;25.76;49.46;101398.47;104497;1104;79598;-59
2021/03/31 08:36:50;;;;;;;25.08;21.92;;;;;;;26.18;48.42;101395.70;104492;1104;64157;-60
2021/03/31 08:38:59;;;;;;;23.92;21.40;;;;;;;26.41;48.43;101396.38;104509;1104;83367;-60
2021/03/31 08:41:17;;;;;;;23.27;20.80;;;;;;;26.43;47.62;101400.54;104524;1104;72026;-60
2021/03/31 08:43:29;;;;;;;22.67;20.45;;;;;;;25.80;47.92;101393.20;104487;1104;83781;-65
2021/03/31 08:45:42;;;;;;;22.83;20.48;;;;;;;25.60;47.52;101396.64;104458;1104;79264;-65
2021/03/31 08:47:48;;;;;;;24.92;22.38;;;;;;;25.62;48.54;101390.86;104503;1104;64214;-59
2021/03/31 08:50:07;;;;;;;24.58;21.98;;;;;;;25.80;48.38;101398.74;104488;1104;81429;-60
2021/03/31 08:52:20;;;;;;;23.48;21.17;;;;;;;26.15;48.07;101390.70;104498;1104;71509;-64
2021/03/31 08:54:38;;;;;;;22.70;20.35;;;;;;;26.65;47.80;101386.50;104490;1104;84797;-64
2021/03/31 08:56:50;;;;;;;24.27;21.67;;;;;;;26.85;46.07;101386.61;104502;1104;77963;-63
2021/03/31 08:58:59;;;;;;;21.95;19.70;;;;;;;27.19;46.52;101390.58;104485;1104;64118;-63
2021/03/31 09:01:08;;;;;;;22.75;20.45;;;;;;;27.37;45.91;101387.25;104513;1104;80193;-64
2021/03/31 09:03:14;;;;;;;22.02;19.92;;;;;;;27.96;44.97;101381.14;104461;1104;72951;-64
2021/03/31 09:05:20;;;;;;;21.02;18.83;;;;;;;27.99;44.04;101377.81;104479;1104;83321;-63
2021/03/31 09:07:33;;;;;;;20.98;18.88;;;;;;;28.48;43.18;101381.58;104500;1104;78699;-59
2021/03/31 09:09:43;;;;;;;21.77;19.83;;;;;;;28.61;43.57;101375.39;104495;1104;64227;-59
2021/03/31 09:12:00;;;;;;;19.52;17.65;;;;;;;28.55;42.76;101379.30;104505;1104;81785;-64
2021/03/31 09:14:26;;;;;;;21.08;19.08;;;;;;;28.27;42.73;101379.13;104484;1104;73309;-64
2021/03/31 09:16:34;;;;;;;19.08;17.17;;;;;;;28.83;42.24;101363.90;104502;1103;84109;-62
2021/03/31 09:18:44;;;;;;;17.45;15.63;;;;;;;29.25;41.80;101363.38;104479;1104;78303;-59
2021/03/31 09:20:50;;;;;;;17.17;15.52;;;;;;;28.86;41.34;101366.11;104466;1104;64153;-58
2021/03/31 09:22:57;;;;;;;16.90;15.24;;;;;;;29.08;40.25;101365.69;104495;1104;81620;-66
2021/03/31 09:25:08;;;;;;;16.20;14.60;;;;;;;29.27;40.13;101358.34;104531;1104;71868;-64
2021/03/31 09:27:16;;;;;;;15.93;14.30;;;;;;;29.77;39.76;101360.69;104498;1103;84364;-59
2021/03/31 09:29:22;;;;;;;17.00;15.40;;;;;;;29.60;38.98;101357.50;104480;1104;78042;-59
2021/03/31 09:31:32;;;;;;;16.45;14.82;;;;;;;29.20;39.09;101350.27;104501;1104;64221;-59
2021/03/31 09:33:43;;;;;;;18.65;16.80;;;;;;;29.78;39.20;101353.13;104514;1104;82977;-58
2021/03/31 09:35:50;;;;;;;17.07;15.37;;;;;;;29.43;37.75;101351.52;104509;1103;72103;-59
2021/03/31 09:37:55;;;;;;;17.40;15.70;;;;;;;28.73;38.38;101343.66;104488;1104;85415;-63
2021/03/31 09:40:01;;;;;;;17.55;15.77;;;;;;;28.57;39.06;101343.69;104485;1104;78153;-63
2021/03/31 09:42:14;;;;;;;17.55;15.30;;;;;;;28.99;39.01;101347.93;104508;1104;64365;-58
2021/03/31 09:44:22;;;;;;;16.83;15.13;;;;;;;29.02;38.20;101341.79;104505;1104;81289;-60